Time;durP1;ratioP1;P1;durP2;ratioP2;P2;SDS_P1;SDS_P2;PMS_P1;PMS_P2;Temp;Humidity;BMP_temperature;BMP_pressure;BME280_temperature;BME280_humidity;BME280_pressure;Samples;Min_cycle;Max_cycle;Signal;HPM_P1;HPM_P2
2022/03/28 00:00:31;;;;;;;70.53;10.88;;;;;;;;;;5131706;28;20229;-73
2022/03/28 00:02:58;;;;;;;69.57;10.63;;;;;;;;;;5131426;28;20241;-73
2022/03/28 00:05:26;;;;;;;74.20;11.32;;;;;;;;;;5125557;28;20269;-73
2022/03/28 00:07:53;;;;;;;71.90;11.05;;;;;;;;;;5131037;28;20219;-72
2022/03/28 00:10:20;;;;;;;70.28;11.52;;;;;;;;;;5131463;28;20234;-73
2022/03/28 00:12:49;;;;;;;78.07;12.65;;;;;;;;;;5130623;28;20203;-71
2022/03/28 00:15:16;;;;;;;81.28;15.50;;;;;;;;;;5125578;28;20845;-72
2022/03/28 00:17:43;;;;;;;76.43;13.70;;;;;;;;;;5110281;28;20283;-73
2022/03/28 00:20:12;;;;;;;77.13;15.18;;;;;;;;;;5111379;28;20235;-73
2022/03/28 00:22:40;;;;;;;73.80;13.07;;;;;;;;;;5110962;28;20201;-74
2022/03/28 00:25:08;;;;;;;75.10;12.88;;;;;;;;;;5107610;28;20208;-72
2022/03/28 00:27:35;;;;;;;72.10;11.48;;;;;;;;;;5109360;28;20251;-72
2022/03/28 00:30:04;;;;;;;75.68;12.65;;;;;;;;;;5110260;28;20200;-74
2022/03/28 00:32:32;;;;;;;74.72;12.73;;;;;;;;;;5113735;28;20253;-72
2022/03/28 00:34:59;;;;;;;74.97;12.75;;;;;;;;;;5114280;28;20226;-73
2022/03/28 00:37:27;;;;;;;77.38;12.15;;;;;;;;;;5112838;28;20234;-73
2022/03/28 00:39:54;;;;;;;72.57;12.35;;;;;;;;;;5114128;28;20271;-72
2022/03/28 00:42:21;;;;;;;74.18;13.13;;;;;;;;;;5114125;28;20272;-73
2022/03/28 00:44:48;;;;;;;81.13;14.85;;;;;;;;;;5113965;28;20218;-72
2022/03/28 00:47:16;;;;;;;81.55;14.98;;;;;;;;;;5109930;28;20232;-72
2022/03/28 00:49:43;;;;;;;80.95;16.60;;;;;;;;;;5114311;28;20208;-74
2022/03/28 00:52:11;;;;;;;81.43;15.98;;;;;;;;;;5113757;28;20218;-72
2022/03/28 00:54:38;;;;;;;76.05;14.75;;;;;;;;;;5114467;28;20234;-72
2022/03/28 00:57:05;;;;;;;76.38;12.90;;;;;;;;;;5113497;28;20221;-67
2022/03/28 00:59:33;;;;;;;71.07;10.90;;;;;;;;;;5113421;28;20208;-70
2022/03/28 01:02:01;;;;;;;77.28;12.25;;;;;;;;;;5113439;28;20223;-71
2022/03/28 01:04:29;;;;;;;75.00;11.43;;;;;;;;;;5113355;28;20243;-71
2022/03/28 01:06:57;;;;;;;73.22;12.52;;;;;;;;;;5112451;28;20315;-68
2022/03/28 01:09:24;;;;;;;69.95;11.43;;;;;;;;;;5131156;28;20199;-70
2022/03/28 01:11:53;;;;;;;76.90;11.45;;;;;;;;;;5134729;28;20582;-70
2022/03/28 01:14:20;;;;;;;71.15;11.35;;;;;;;;;;5134780;28;20223;-71
2022/03/28 01:19:33;;;;;;;74.93;10.98;;;;;;;;;;5132730;28;20183;-69
2022/03/28 01:22:02;;;;;;;72.53;11.20;;;;;;;;;;5133504;28;20226;-72
2022/03/28 01:24:29;;;;;;;73.20;11.70;;;;;;;;;;5134557;27;20208;-70
2022/03/28 01:26:57;;;;;;;74.63;11.02;;;;;;;;;;5134116;28;20325;-71
2022/03/28 01:29:24;;;;;;;75.20;11.10;;;;;;;;;;5133277;28;20211;-72
2022/03/28 01:31:51;;;;;;;70.97;11.20;;;;;;;;;;5134048;28;20214;-71
2022/03/28 01:34:18;;;;;;;70.00;10.30;;;;;;;;;;5133863;28;20227;-72
2022/03/28 01:36:47;;;;;;;72.32;10.98;;;;;;;;;;5133756;28;20220;-72
2022/03/28 01:39:15;;;;;;;71.85;11.07;;;;;;;;;;5133453;28;20199;-71
2022/03/28 01:41:42;;;;;;;74.32;11.98;;;;;;;;;;5133575;28;20238;-72
2022/03/28 01:44:09;;;;;;;72.72;11.88;;;;;;;;;;5128545;28;20250;-72
2022/03/28 01:46:41;;;;;;;71.90;10.50;;;;;;;;;;5117768;28;20718;-72
2022/03/28 01:49:08;;;;;;;75.32;12.45;;;;;;;;;;5118117;28;20576;-72
2022/03/28 01:51:35;;;;;;;69.07;10.30;;;;;;;;;;5118006;28;20751;-72
2022/03/28 01:54:02;;;;;;;72.70;11.07;;;;;;;;;;5120377;28;20235;-72
2022/03/28 01:56:31;;;;;;;73.20;11.65;;;;;;;;;;5125216;28;20302;-70
2022/03/28 01:58:58;;;;;;;70.05;10.23;;;;;;;;;;5128502;28;20228;-72
2022/03/28 02:01:25;;;;;;;72.82;11.75;;;;;;;;;;5119423;28;20231;-72
2022/03/28 02:03:52;;;;;;;71.68;11.20;;;;;;;;;;5115570;28;20203;-72
2022/03/28 02:06:20;;;;;;;78.90;11.75;;;;;;;;;;5115030;28;20666;-72
2022/03/28 02:08:47;;;;;;;72.03;11.05;;;;;;;;;;5114203;28;20204;-72
2022/03/28 02:11:14;;;;;;;68.13;9.70;;;;;;;;;;5114850;28;20210;-71
2022/03/28 02:13:42;;;;;;;72.45;11.27;;;;;;;;;;5114910;28;20290;-72
2022/03/28 02:16:10;;;;;;;71.20;11.50;;;;;;;;;;5114636;28;20263;-72
2022/03/28 02:18:38;;;;;;;76.63;10.48;;;;;;;;;;5114888;28;20203;-72
2022/03/28 02:21:05;;;;;;;70.10;11.18;;;;;;;;;;5114802;28;20204;-72
2022/03/28 02:23:32;;;;;;;75.30;11.32;;;;;;;;;;5114547;28;20636;-71
2022/03/28 02:26:00;;;;;;;71.25;11.27;;;;;;;;;;5114541;28;20207;-72
2022/03/28 02:28:27;;;;;;;71.30;10.57;;;;;;;;;;5113610;28;20327;-72
2022/03/28 02:30:56;;;;;;;72.50;10.45;;;;;;;;;;5114229;28;20276;-72
2022/03/28 02:33:23;;;;;;;67.55;9.35;;;;;;;;;;5114383;28;20290;-71
2022/03/28 02:35:50;;;;;;;70.00;10.20;;;;;;;;;;5114275;28;20250;-72
2022/03/28 02:38:17;;;;;;;74.18;11.07;;;;;;;;;;5113857;28;20310;-72
2022/03/28 02:40:44;;;;;;;71.72;10.25;;;;;;;;;;5114081;28;20229;-72
2022/03/28 02:43:11;;;;;;;73.22;11.05;;;;;;;;;;5113993;28;20644;-72
2022/03/28 02:45:39;;;;;;;73.80;10.13;;;;;;;;;;5114012;28;20210;-72
2022/03/28 02:48:07;;;;;;;69.60;10.50;;;;;;;;;;5112832;28;20707;-72
2022/03/28 02:50:35;;;;;;;69.68;10.50;;;;;;;;;;5114060;28;20239;-72
2022/03/28 02:53:02;;;;;;;71.55;10.55;;;;;;;;;;5113198;28;20631;-72
2022/03/28 02:55:29;;;;;;;77.20;10.18;;;;;;;;;;5113469;28;20699;-72
2022/03/28 02:57:57;;;;;;;73.63;11.93;;;;;;;;;;5113161;28;20306;-72
2022/03/28 03:00:24;;;;;;;67.95;9.88;;;;;;;;;;5114062;28;20231;-72
2022/03/28 03:02:51;;;;;;;74.13;11.13;;;;;;;;;;5115273;28;20271;-72
2022/03/28 03:05:20;;;;;;;74.15;11.48;;;;;;;;;;5116156;28;20565;-71
2022/03/28 03:07:50;;;;;;;69.80;11.32;;;;;;;;;;5113199;28;20249;-73
2022/03/28 03:10:17;;;;;;;71.32;10.80;;;;;;;;;;5114012;28;20209;-71
2022/03/28 03:12:44;;;;;;;69.60;10.05;;;;;;;;;;5113865;28;20238;-71
2022/03/28 03:15:11;;;;;;;70.53;10.65;;;;;;;;;;5113951;28;20206;-72
2022/03/28 03:17:38;;;;;;;76.40;10.43;;;;;;;;;;5115601;28;20661;-72
2022/03/28 03:20:06;;;;;;;69.68;8.98;;;;;;;;;;5113784;28;20235;-72
2022/03/28 03:22:35;;;;;;;74.55;11.95;;;;;;;;;;5113949;28;20207;-72
2022/03/28 03:25:03;;;;;;;68.68;10.23;;;;;;;;;;5113884;28;20210;-71
2022/03/28 03:27:30;;;;;;;73.68;10.65;;;;;;;;;;5112878;28;20723;-72
2022/03/28 03:29:57;;;;;;;71.65;10.50;;;;;;;;;;5113517;28;20211;-72
2022/03/28 03:32:24;;;;;;;70.78;10.30;;;;;;;;;;5114000;28;20213;-72
2022/03/28 03:34:51;;;;;;;80.93;10.95;;;;;;;;;;5113844;28;20676;-72
2022/03/28 03:37:19;;;;;;;73.10;9.68;;;;;;;;;;5113383;28;20223;-71
2022/03/28 03:39:48;;;;;;;68.97;10.90;;;;;;;;;;5114382;28;20231;-70
2022/03/28 03:42:15;;;;;;;68.72;10.65;;;;;;;;;;5115012;28;20203;-72
2022/03/28 03:44:42;;;;;;;68.10;9.68;;;;;;;;;;5114106;28;20207;-72
2022/03/28 03:47:09;;;;;;;72.85;11.07;;;;;;;;;;5113601;28;20709;-72
2022/03/28 03:49:36;;;;;;;74.60;11.85;;;;;;;;;;5113251;28;20235;-72
2022/03/28 03:52:04;;;;;;;72.40;10.48;;;;;;;;;;5114185;28;20597;-72
2022/03/28 03:54:31;;;;;;;67.85;10.13;;;;;;;;;;5113873;28;20204;-71
2022/03/28 03:57:00;;;;;;;71.57;10.82;;;;;;;;;;5113649;28;20226;-71
2022/03/28 03:59:27;;;;;;;71.15;10.63;;;;;;;;;;5113888;28;20290;-71
2022/03/28 04:01:54;;;;;;;73.22;11.82;;;;;;;;;;5114420;28;20213;-71
2022/03/28 04:04:21;;;;;;;73.72;9.30;;;;;;;;;;5113997;28;20637;-71
2022/03/28 04:06:49;;;;;;;70.13;11.48;;;;;;;;;;5116887;28;20229;-72
2022/03/28 04:09:16;;;;;;;73.72;10.63;;;;;;;;;;5117805;28;20290;-72
2022/03/28 04:11:44;;;;;;;72.75;11.10;;;;;;;;;;5119158;28;20227;-72
2022/03/28 04:14:12;;;;;;;72.97;10.38;;;;;;;;;;5121683;28;20239;-71
2022/03/28 04:16:39;;;;;;;79.28;11.57;;;;;;;;;;5126351;28;20246;-71
2022/03/28 04:19:07;;;;;;;74.07;11.52;;;;;;;;;;5130650;28;20200;-71
2022/03/28 04:21:34;;;;;;;73.50;11.65;;;;;;;;;;5133940;28;20276;-70
2022/03/28 04:24:01;;;;;;;71.03;11.32;;;;;;;;;;5133645;28;20256;-71
2022/03/28 04:26:28;;;;;;;70.00;9.88;;;;;;;;;;5134152;28;20231;-71
2022/03/28 04:28:55;;;;;;;72.07;10.65;;;;;;;;;;5133449;28;20226;-71
2022/03/28 04:31:24;;;;;;;76.88;11.38;;;;;;;;;;5133204;28;20199;-71
2022/03/28 04:33:51;;;;;;;74.38;10.55;;;;;;;;;;5127363;28;20318;-72
2022/03/28 04:36:18;;;;;;;68.95;11.10;;;;;;;;;;5123741;28;20199;-70
2022/03/28 04:38:45;;;;;;;72.82;11.45;;;;;;;;;;5132413;28;20227;-72
2022/03/28 04:41:12;;;;;;;73.38;11.18;;;;;;;;;;5135084;28;20231;-70
2022/03/28 04:43:39;;;;;;;69.90;10.88;;;;;;;;;;5131755;28;20616;-72
2022/03/28 04:46:06;;;;;;;71.05;11.60;;;;;;;;;;5128248;28;20207;-71
2022/03/28 04:48:35;;;;;;;76.35;10.60;;;;;;;;;;5128016;28;20259;-72
2022/03/28 04:51:02;;;;;;;71.85;11.07;;;;;;;;;;5128917;28;20215;-71
2022/03/28 04:53:29;;;;;;;81.60;13.52;;;;;;;;;;5127432;28;20239;-71
2022/03/28 04:55:56;;;;;;;71.80;10.65;;;;;;;;;;5128032;28;20213;-71
2022/03/28 04:58:24;;;;;;;72.55;11.30;;;;;;;;;;5126337;28;20254;-71
2022/03/28 05:00:52;;;;;;;75.00;11.73;;;;;;;;;;5119946;28;20254;-72
2022/03/28 05:03:19;;;;;;;70.72;10.32;;;;;;;;;;5118849;28;20581;-72
2022/03/28 05:05:48;;;;;;;72.57;10.50;;;;;;;;;;5131321;28;20230;-70
2022/03/28 05:08:15;;;;;;;73.35;11.95;;;;;;;;;;5133423;28;20234;-71
2022/03/28 05:10:43;;;;;;;77.15;12.43;;;;;;;;;;5132054;28;20203;-72
2022/03/28 05:13:10;;;;;;;70.80;11.00;;;;;;;;;;5125897;28;20272;-72
2022/03/28 05:15:37;;;;;;;72.13;10.90;;;;;;;;;;5129588;28;20242;-69
2022/03/28 05:18:04;;;;;;;72.57;12.00;;;;;;;;;;5127479;28;20254;-71
2022/03/28 05:20:31;;;;;;;75.38;12.27;;;;;;;;;;5128801;28;20246;-71
2022/03/28 05:23:00;;;;;;;72.80;11.15;;;;;;;;;;5128916;28;20210;-72
2022/03/28 05:25:27;;;;;;;79.63;11.40;;;;;;;;;;5129320;28;20267;-70
2022/03/28 05:27:55;;;;;;;73.60;10.60;;;;;;;;;;5129047;27;20250;-72
2022/03/28 05:30:22;;;;;;;72.18;10.68;;;;;;;;;;5129264;28;20207;-71
2022/03/28 05:32:49;;;;;;;74.97;12.43;;;;;;;;;;5128972;28;20208;-72
2022/03/28 05:35:17;;;;;;;71.85;11.90;;;;;;;;;;5128815;28;20640;-72
2022/03/28 05:37:45;;;;;;;72.93;11.73;;;;;;;;;;5126894;28;20224;-71
2022/03/28 05:40:13;;;;;;;70.07;10.05;;;;;;;;;;5128521;28;20200;-71
2022/03/28 05:42:41;;;;;;;74.68;11.40;;;;;;;;;;5127918;28;20729;-72
2022/03/28 05:45:10;;;;;;;76.40;12.88;;;;;;;;;;5121704;28;20207;-72
2022/03/28 05:47:37;;;;;;;74.32;12.30;;;;;;;;;;5115427;28;20227;-72
2022/03/28 05:50:05;;;;;;;71.93;11.10;;;;;;;;;;5119799;28;20203;-71
2022/03/28 05:52:32;;;;;;;80.97;12.82;;;;;;;;;;5116250;28;20208;-71
2022/03/28 05:54:59;;;;;;;75.60;11.88;;;;;;;;;;5127368;27;20223;-72
2022/03/28 05:57:27;;;;;;;75.50;11.40;;;;;;;;;;5126939;28;20307;-70
2022/03/28 05:59:54;;;;;;;73.65;12.55;;;;;;;;;;5128214;28;20210;-71
2022/03/28 06:02:22;;;;;;;71.85;11.10;;;;;;;;;;5128131;28;20203;-72
2022/03/28 06:04:49;;;;;;;75.90;12.70;;;;;;;;;;5128820;28;20203;-70
2022/03/28 06:07:17;;;;;;;79.07;12.63;;;;;;;;;;5126822;28;20223;-72
2022/03/28 06:09:45;;;;;;;73.57;11.82;;;;;;;;;;5128575;28;20317;-70
2022/03/28 06:12:13;;;;;;;79.95;13.07;;;;;;;;;;5127978;28;20231;-70
2022/03/28 06:14:41;;;;;;;77.07;12.93;;;;;;;;;;5127183;28;20211;-72
2022/03/28 06:17:08;;;;;;;78.82;12.30;;;;;;;;;;5126862;28;20255;-71
2022/03/28 06:19:35;;;;;;;77.45;11.98;;;;;;;;;;5127382;28;20227;-70
2022/03/28 06:22:02;;;;;;;69.70;8.50;;;;;;;;;;5124771;27;20196;-69
2022/03/28 06:24:30;;;;;;;75.13;12.90;;;;;;;;;;5126449;28;20235;-69
2022/03/28 06:26:57;;;;;;;76.75;11.15;;;;;;;;;;5130297;28;20308;-69
2022/03/28 06:29:24;;;;;;;74.03;11.52;;;;;;;;;;5128070;28;20211;-69
2022/03/28 06:31:52;;;;;;;75.20;13.38;;;;;;;;;;5129845;28;20263;-69
2022/03/28 06:34:19;;;;;;;78.40;13.40;;;;;;;;;;5129513;28;20295;-69
2022/03/28 06:36:47;;;;;;;71.10;12.05;;;;;;;;;;5128962;28;20291;-69
2022/03/28 06:39:15;;;;;;;77.93;12.95;;;;;;;;;;5127641;28;20200;-69
2022/03/28 06:41:42;;;;;;;72.88;12.05;;;;;;;;;;5127595;28;20218;-69
2022/03/28 06:44:11;;;;;;;79.25;13.68;;;;;;;;;;5127328;28;20203;-69
2022/03/28 06:46:39;;;;;;;72.22;12.30;;;;;;;;;;5126250;28;20219;-69
2022/03/28 06:49:07;;;;;;;76.55;12.75;;;;;;;;;;5124869;28;20223;-69
2022/03/28 06:51:35;;;;;;;72.82;12.43;;;;;;;;;;5119007;28;20641;-69
2022/03/28 06:54:04;;;;;;;77.53;11.90;;;;;;;;;;5112030;28;20218;-69
2022/03/28 06:56:31;;;;;;;77.43;13.63;;;;;;;;;;5109215;28;20230;-69
2022/03/28 06:58:58;;;;;;;72.45;11.55;;;;;;;;;;5112141;28;20290;-70
2022/03/28 07:01:26;;;;;;;75.90;12.95;;;;;;;;;;5112636;28;20212;-69
2022/03/28 07:03:53;;;;;;;76.70;12.63;;;;;;;;;;5112649;28;20294;-70
2022/03/28 07:06:22;;;;;;;76.45;12.57;;;;;;;;;;5112437;28;20207;-70
2022/03/28 07:08:49;;;;;;;79.70;13.13;;;;;;;;;;5111754;28;20721;-70
2022/03/28 07:11:16;;;;;;;69.95;10.65;;;;;;;;;;5112460;28;20679;-70
2022/03/28 07:13:44;;;;;;;68.93;10.65;;;;;;;;;;5112299;28;20671;-70
2022/03/28 07:16:11;;;;;;;74.32;11.75;;;;;;;;;;5112615;28;20294;-70
2022/03/28 07:18:38;;;;;;;72.38;11.60;;;;;;;;;;5111894;28;20200;-70
2022/03/28 07:21:06;;;;;;;72.10;12.23;;;;;;;;;;5112565;28;20578;-70
2022/03/28 07:23:34;;;;;;;76.13;13.00;;;;;;;;;;5112042;28;20680;-70
2022/03/28 07:26:01;;;;;;;78.60;12.63;;;;;;;;;;5111464;28;20311;-70
2022/03/28 07:28:29;;;;;;;76.90;13.70;;;;;;;;;;5107658;28;20231;-70
2022/03/28 07:30:56;;;;;;;75.47;12.80;;;;;;;;;;5112201;28;20548;-70
2022/03/28 07:33:24;;;;;;;73.50;11.68;;;;;;;;;;5112009;28;20208;-70
2022/03/28 07:35:51;;;;;;;76.70;11.48;;;;;;;;;;5112291;28;20637;-70
2022/03/28 07:38:18;;;;;;;72.90;12.50;;;;;;;;;;5111357;28;20225;-70
2022/03/28 07:40:47;;;;;;;75.73;13.00;;;;;;;;;;5114776;28;20450;-70
2022/03/28 07:43:14;;;;;;;75.30;12.57;;;;;;;;;;5116363;28;20816;-70
2022/03/28 07:45:43;;;;;;;75.13;11.88;;;;;;;;;;5116228;28;20546;-70
2022/03/28 07:48:10;;;;;;;77.33;12.33;;;;;;;;;;5115566;28;20290;-70
2022/03/28 07:50:37;;;;;;;78.30;12.07;;;;;;;;;;5116354;28;20538;-70
2022/03/28 07:53:05;;;;;;;76.37;12.40;;;;;;;;;;5116375;28;20457;-70
2022/03/28 07:55:32;;;;;;;70.70;11.70;;;;;;;;;;5116110;28;20492;-70
2022/03/28 07:58:03;;;;;;;77.63;12.00;;;;;;;;;;5114507;27;20478;-70
2022/03/28 08:00:30;;;;;;;76.87;12.20;;;;;;;;;;5094671;28;20457;-70
2022/03/28 08:02:57;;;;;;;72.30;11.20;;;;;;;;;;5095640;28;20548;-70
2022/03/28 08:05:25;;;;;;;73.57;11.57;;;;;;;;;;5095214;28;20448;-70
2022/03/28 08:07:52;;;;;;;77.43;11.37;;;;;;;;;;5094597;28;20487;-70
2022/03/28 08:10:20;;;;;;;73.77;12.63;;;;;;;;;;5095829;28;20875;-70
2022/03/28 08:12:47;;;;;;;74.47;11.77;;;;;;;;;;5095434;28;20455;-70
2022/03/28 08:15:16;;;;;;;73.70;11.47;;;;;;;;;;5095561;28;20958;-70
2022/03/28 08:17:43;;;;;;;75.77;12.20;;;;;;;;;;5094827;28;20971;-70
2022/03/28 08:20:12;;;;;;;72.70;11.40;;;;;;;;;;5095471;28;20450;-70
2022/03/28 08:22:39;;;;;;;71.77;10.80;;;;;;;;;;5095113;28;20442;-70
2022/03/28 08:25:07;;;;;;;72.20;11.50;;;;;;;;;;5095123;28;20446;-70
2022/03/28 08:27:35;;;;;;;73.23;12.07;;;;;;;;;;5094248;28;20527;-70
2022/03/28 08:30:02;;;;;;;75.33;11.73;;;;;;;;;;5094738;28;20465;-70
2022/03/28 08:32:31;;;;;;;71.77;10.63;;;;;;;;;;5115657;28;20480;-70
2022/03/28 08:34:58;;;;;;;72.37;12.57;;;;;;;;;;5115385;28;20532;-70
2022/03/28 08:37:27;;;;;;;79.90;12.00;;;;;;;;;;5114925;28;20483;-70
2022/03/28 08:39:55;;;;;;;73.10;12.40;;;;;;;;;;5115753;28;20447;-71
2022/03/28 08:42:22;;;;;;;75.00;12.53;;;;;;;;;;5115441;28;20448;-71
2022/03/28 08:44:50;;;;;;;74.93;12.50;;;;;;;;;;5115138;28;20441;-71
2022/03/28 08:47:18;;;;;;;75.40;12.03;;;;;;;;;;5114323;28;20467;-71
2022/03/28 08:49:47;;;;;;;75.53;12.87;;;;;;;;;;5114854;28;20588;-69
2022/03/28 08:52:16;;;;;;;75.50;13.03;;;;;;;;;;5114720;28;20545;-69
2022/03/28 08:54:43;;;;;;;82.27;12.80;;;;;;;;;;5115309;28;20445;-70
2022/03/28 08:57:10;;;;;;;78.50;12.60;;;;;;;;;;5111520;28;20472;-70
2022/03/28 08:59:37;;;;;;;76.57;12.57;;;;;;;;;;5115563;28;20545;-70
2022/03/28 09:02:05;;;;;;;80.73;14.37;;;;;;;;;;5114534;28;20969;-70
2022/03/28 09:04:32;;;;;;;76.20;13.00;;;;;;;;;;5114945;28;20452;-70
2022/03/28 09:07:00;;;;;;;78.70;13.70;;;;;;;;;;5114320;28;20465;-70
2022/03/28 09:09:29;;;;;;;78.13;14.27;;;;;;;;;;5114257;28;20488;-70
2022/03/28 09:11:57;;;;;;;76.33;12.87;;;;;;;;;;5114848;28;20458;-70
2022/03/28 09:14:26;;;;;;;79.43;13.17;;;;;;;;;;5114797;28;20442;-70
2022/03/28 09:17:00;;;;;;;81.87;13.13;;;;;;;;;;5114963;28;20493;-70
2022/03/28 09:19:28;;;;;;;78.10;13.77;;;;;;;;;;5114124;28;20445;-71
2022/03/28 09:21:55;;;;;;;75.43;12.53;;;;;;;;;;5114857;28;20498;-71
2022/03/28 09:24:31;;;;;;;81.00;13.70;;;;;;;;;;5114625;28;20532;-71
2022/03/28 09:27:10;;;;;;;73.40;12.00;;;;;;;;;;5113401;28;20465;-71
2022/03/28 09:29:52;;;;;;;82.17;13.73;;;;;;;;;;5110583;27;20481;-71
2022/03/28 09:32:23;;;;;;;78.80;14.43;;;;;;;;;;5114304;28;20461;-70
2022/03/28 09:35:03;;;;;;;77.53;13.60;;;;;;;;;;5114183;28;20455;-70
2022/03/28 09:37:30;;;;;;;76.57;13.17;;;;;;;;;;5113362;28;20478;-70
2022/03/28 09:39:59;;;;;;;76.27;14.50;;;;;;;;;;5114328;28;20525;-71
2022/03/28 09:42:26;;;;;;;73.60;12.87;;;;;;;;;;5114116;28;20889;-71
2022/03/28 09:44:54;;;;;;;79.77;13.53;;;;;;;;;;5114063;28;20454;-71
2022/03/28 09:47:22;;;;;;;74.40;12.87;;;;;;;;;;5113365;28;20471;-71
2022/03/28 09:49:50;;;;;;;78.37;14.10;;;;;;;;;;5114003;28;20506;-71
2022/03/28 09:52:18;;;;;;;75.70;14.27;;;;;;;;;;5114101;28;20449;-71
2022/03/28 09:54:46;;;;;;;78.80;13.83;;;;;;;;;;5114369;28;20833;-71
2022/03/28 09:57:15;;;;;;;79.13;14.07;;;;;;;;;;5113469;28;20467;-71
2022/03/28 09:59:43;;;;;;;78.73;14.03;;;;;;;;;;5110995;28;20537;-71
2022/03/28 10:02:21;;;;;;;79.57;14.43;;;;;;;;;;5123565;28;20506;-69
2022/03/28 10:04:49;;;;;;;79.87;13.90;;;;;;;;;;5124574;28;20955;-72
2022/03/28 10:07:16;;;;;;;80.40;14.30;;;;;;;;;;5125661;28;20558;-71
2022/03/28 10:09:44;;;;;;;79.83;14.13;;;;;;;;;;5126594;28;20485;-72
2022/03/28 10:12:11;;;;;;;72.20;13.23;;;;;;;;;;5126317;28;20484;-72
2022/03/28 10:14:39;;;;;;;79.87;14.07;;;;;;;;;;5126509;28;20514;-72
2022/03/28 10:17:07;;;;;;;74.90;13.60;;;;;;;;;;5127147;28;20466;-72
2022/03/28 10:19:36;;;;;;;80.37;14.37;;;;;;;;;;5127507;28;20502;-69
2022/03/28 10:22:05;;;;;;;82.17;14.37;;;;;;;;;;5127667;28;20442;-69
2022/03/28 10:24:34;;;;;;;78.23;13.87;;;;;;;;;;5124514;28;20487;-69
2022/03/28 10:27:02;;;;;;;73.27;14.20;;;;;;;;;;5122995;28;20468;-69
2022/03/28 10:29:35;;;;;;;75.97;12.73;;;;;;;;;;5124420;28;20488;-70
2022/03/28 10:32:05;;;;;;;77.40;14.10;;;;;;;;;;5127852;28;20440;-70
2022/03/28 10:34:46;;;;;;;72.43;13.17;;;;;;;;;;5128470;28;20466;-70
2022/03/28 10:37:26;;;;;;;79.20;15.27;;;;;;;;;;5124844;28;20466;-70
2022/03/28 10:39:53;;;;;;;72.03;12.60;;;;;;;;;;5124517;28;20480;-68
2022/03/28 10:42:24;;;;;;;71.30;13.13;;;;;;;;;;5118823;28;20441;-70
2022/03/28 10:45:00;;;;;;;75.37;14.40;;;;;;;;;;5123778;28;20489;-70
2022/03/28 10:47:45;;;;;;;73.30;14.13;;;;;;;;;;5117782;28;20473;-70
2022/03/28 10:50:13;;;;;;;79.90;15.70;;;;;;;;;;5122889;28;20507;-70
2022/03/28 10:52:40;;;;;;;72.87;13.57;;;;;;;;;;5124305;28;20489;-70
2022/03/28 10:55:08;;;;;;;73.10;13.37;;;;;;;;;;5123526;28;20481;-70
2022/03/28 10:57:36;;;;;;;73.70;13.50;;;;;;;;;;5122532;28;20461;-70
2022/03/28 11:00:08;;;;;;;75.87;14.07;;;;;;;;;;5122678;28;20481;-70
2022/03/28 11:02:36;;;;;;;74.77;14.20;;;;;;;;;;5123086;28;20474;-70
2022/03/28 11:05:14;;;;;;;70.77;12.60;;;;;;;;;;5122253;28;20477;-71
2022/03/28 11:07:41;;;;;;;76.43;13.40;;;;;;;;;;5122826;28;20470;-70
2022/03/28 11:10:11;;;;;;;85.87;13.23;;;;;;;;;;5122472;28;20519;-70
2022/03/28 11:12:39;;;;;;;72.20;12.60;;;;;;;;;;5123578;28;20479;-70
2022/03/28 11:15:15;;;;;;;72.53;12.13;;;;;;;;;;5122280;28;20445;-71
2022/03/28 11:17:53;;;;;;;70.90;12.77;;;;;;;;;;5121608;28;20465;-70
2022/03/28 11:20:23;;;;;;;71.40;13.77;;;;;;;;;;5117636;28;20469;-71
2022/03/28 11:22:51;;;;;;;67.83;12.67;;;;;;;;;;5122047;28;20463;-70
2022/03/28 11:25:33;;;;;;;69.90;12.57;;;;;;;;;;5122013;28;20442;-71
2022/03/28 11:28:05;;;;;;;69.07;13.07;;;;;;;;;;5118559;28;20569;-71
2022/03/28 11:30:32;;;;;;;66.67;12.83;;;;;;;;;;5121176;28;20493;-72
2022/03/28 11:32:59;;;;;;;76.37;14.40;;;;;;;;;;5123106;28;20513;-71
2022/03/28 11:35:28;;;;;;;76.23;13.87;;;;;;;;;;5121517;28;20465;-71
2022/03/28 11:37:56;;;;;;;68.43;13.10;;;;;;;;;;5121835;28;20505;-72
2022/03/28 11:40:23;;;;;;;72.50;13.63;;;;;;;;;;5121311;28;20541;-72
2022/03/28 11:42:50;;;;;;;65.50;11.33;;;;;;;;;;5121267;28;20472;-71
2022/03/28 11:45:18;;;;;;;72.43;12.57;;;;;;;;;;5123690;28;20442;-71
2022/03/28 11:47:51;;;;;;;69.33;12.33;;;;;;;;;;5122105;28;20465;-71
2022/03/28 11:50:18;;;;;;;71.93;13.60;;;;;;;;;;5120864;28;20473;-71
2022/03/28 11:52:51;;;;;;;72.10;14.07;;;;;;;;;;5118599;28;20517;-71
2022/03/28 11:55:24;;;;;;;71.50;14.50;;;;;;;;;;5122828;28;20437;-71
2022/03/28 12:00:37;;;;;;;70.50;12.93;;;;;;;;;;5122744;28;21002;-71
2022/03/28 12:03:04;;;;;;;70.47;13.50;;;;;;;;;;5122074;28;20450;-71
2022/03/28 12:05:32;;;;;;;69.80;13.63;;;;;;;;;;5122134;28;20452;-71
2022/03/28 12:08:01;;;;;;;70.50;13.63;;;;;;;;;;5121873;28;20475;-71
2022/03/28 12:10:29;;;;;;;68.13;13.23;;;;;;;;;;5121656;28;20448;-71
2022/03/28 12:12:57;;;;;;;70.87;14.10;;;;;;;;;;5121791;28;20440;-71
2022/03/28 12:15:26;;;;;;;70.00;14.13;;;;;;;;;;5115088;28;20477;-71
2022/03/28 12:17:53;;;;;;;82.77;14.90;;;;;;;;;;5111619;28;20466;-71
2022/03/28 12:20:23;;;;;;;80.10;13.63;;;;;;;;;;5120961;28;20564;-71
2022/03/28 12:22:51;;;;;;;70.07;12.93;;;;;;;;;;5115026;28;20457;-71
2022/03/28 12:25:27;;;;;;;68.10;13.53;;;;;;;;;;5102024;28;20474;-71
2022/03/28 12:27:54;;;;;;;72.90;15.33;;;;;;;;;;5103054;28;20500;-71
2022/03/28 12:30:25;;;;;;;71.77;14.90;;;;;;;;;;5103727;28;20454;-71
2022/03/28 12:32:53;;;;;;;73.83;14.10;;;;;;;;;;5103180;28;20514;-71
2022/03/28 12:35:21;;;;;;;70.30;15.63;;;;;;;;;;5104597;28;20477;-71
2022/03/28 12:37:57;;;;;;;70.20;14.37;;;;;;;;;;5103367;28;20473;-71
2022/03/28 12:40:28;;;;;;;72.50;14.30;;;;;;;;;;5096850;28;20484;-71
2022/03/28 12:42:55;;;;;;;75.20;15.20;;;;;;;;;;5095827;28;20453;-71
2022/03/28 12:45:25;;;;;;;72.50;14.90;;;;;;;;;;5096471;28;20541;-71
2022/03/28 12:47:56;;;;;;;72.90;14.63;;;;;;;;;;5095302;28;20549;-71
2022/03/28 12:50:26;;;;;;;67.90;14.07;;;;;;;;;;5095455;28;20442;-71
2022/03/28 12:52:54;;;;;;;69.37;13.43;;;;;;;;;;5095666;28;20732;-71
2022/03/28 12:55:28;;;;;;;73.93;15.13;;;;;;;;;;5106623;28;20951;-71
2022/03/28 12:57:56;;;;;;;69.13;13.20;;;;;;;;;;5115119;28;20568;-71
2022/03/28 13:00:26;;;;;;;70.43;13.43;;;;;;;;;;5115417;28;20510;-71
2022/03/28 13:02:53;;;;;;;71.73;14.90;;;;;;;;;;5115693;28;20457;-71
2022/03/28 13:05:21;;;;;;;71.60;14.50;;;;;;;;;;5115439;28;20456;-71
2022/03/28 13:07:48;;;;;;;70.57;14.33;;;;;;;;;;5114344;28;20466;-71
2022/03/28 13:10:22;;;;;;;71.07;13.47;;;;;;;;;;5114827;28;20842;-70
2022/03/28 13:12:57;;;;;;;67.33;12.37;;;;;;;;;;5115479;28;20448;-70
2022/03/28 13:15:26;;;;;;;72.23;13.20;;;;;;;;;;5115046;28;20539;-70
2022/03/28 13:18:04;;;;;;;74.67;12.77;;;;;;;;;;5114121;28;20824;-70
2022/03/28 13:20:31;;;;;;;69.90;12.53;;;;;;;;;;5114864;28;20477;-70
2022/03/28 13:22:59;;;;;;;71.63;11.93;;;;;;;;;;5115113;28;20446;-70
2022/03/28 13:25:27;;;;;;;71.30;12.13;;;;;;;;;;5111232;28;21035;-71
2022/03/28 13:28:02;;;;;;;69.00;11.80;;;;;;;;;;5093417;28;20467;-70
2022/03/28 13:30:31;;;;;;;67.17;10.67;;;;;;;;;;5093784;28;20462;-70
2022/03/28 13:32:58;;;;;;;68.00;12.83;;;;;;;;;;5094292;28;20537;-70
2022/03/28 13:35:26;;;;;;;69.17;11.80;;;;;;;;;;5094526;28;20449;-70
2022/03/28 13:37:56;;;;;;;73.57;12.00;;;;;;;;;;5093244;28;20549;-70
2022/03/28 13:40:24;;;;;;;68.90;12.30;;;;;;;;;;5093996;28;20482;-70
2022/03/28 13:42:51;;;;;;;67.57;11.03;;;;;;;;;;5094024;28;20492;-71
2022/03/28 13:45:20;;;;;;;67.10;11.10;;;;;;;;;;5094090;28;20446;-70
2022/03/28 13:47:47;;;;;;;70.20;12.23;;;;;;;;;;5093282;28;20466;-70
2022/03/28 13:50:14;;;;;;;73.50;12.30;;;;;;;;;;5096406;28;20478;-71
2022/03/28 13:52:41;;;;;;;70.90;11.87;;;;;;;;;;5099678;28;20537;-70
2022/03/28 13:55:09;;;;;;;67.27;11.23;;;;;;;;;;5098734;28;20446;-71
2022/03/28 13:57:36;;;;;;;66.50;11.30;;;;;;;;;;5093841;28;20498;-71
2022/03/28 14:00:04;;;;;;;67.37;11.60;;;;;;;;;;5093585;28;20478;-70
2022/03/28 14:02:33;;;;;;;70.97;11.13;;;;;;;;;;5093456;28;20533;-70
2022/03/28 14:05:02;;;;;;;68.57;10.17;;;;;;;;;;5093485;28;20931;-70
2022/03/28 14:07:29;;;;;;;68.63;10.43;;;;;;;;;;5092621;28;20975;-70
2022/03/28 14:09:56;;;;;;;66.53;9.90;;;;;;;;;;5093296;28;20531;-70
2022/03/28 14:12:25;;;;;;;68.80;9.93;;;;;;;;;;5093574;28;20450;-70
2022/03/28 14:14:52;;;;;;;66.87;9.97;;;;;;;;;;5093536;28;20454;-70
2022/03/28 14:17:19;;;;;;;65.30;9.43;;;;;;;;;;5092677;28;20466;-70
2022/03/28 14:19:49;;;;;;;65.57;10.20;;;;;;;;;;5093345;28;20874;-70
2022/03/28 14:22:17;;;;;;;66.97;10.03;;;;;;;;;;5093463;28;20446;-71
2022/03/28 14:24:44;;;;;;;66.93;11.07;;;;;;;;;;5093985;28;20452;-71
2022/03/28 14:27:11;;;;;;;69.00;10.20;;;;;;;;;;5091950;28;20545;-72
2022/03/28 14:29:40;;;;;;;65.30;9.30;;;;;;;;;;5105365;28;20457;-71